createdAt,value
2022-08-30T00:02:05.915Z,18.40
2022-08-30T00:04:32.815Z,18.40
2022-08-30T00:07:02.396Z,18.30
2022-08-30T00:09:29.248Z,18.40
2022-08-30T00:11:56.169Z,18.30
2022-08-30T00:14:23.103Z,18.30
2022-08-30T00:16:50.951Z,18.40
2022-08-30T00:19:17.879Z,18.40
2022-08-30T00:21:44.930Z,18.40
2022-08-30T00:24:11.886Z,18.50
2022-08-30T00:26:38.709Z,18.50
2022-08-30T00:29:05.558Z,18.50
2022-08-30T00:31:32.502Z,18.50
2022-08-30T00:33:59.515Z,18.40
2022-08-30T00:36:26.574Z,18.30
2022-08-30T00:38:53.941Z,18.30
2022-08-30T00:41:22.058Z,18.30
2022-08-30T00:43:48.910Z,18.40
2022-08-30T00:46:15.804Z,18.40
2022-08-30T00:48:46.270Z,18.40
2022-08-30T00:51:14.403Z,18.40
2022-08-30T00:53:49.034Z,18.50
2022-08-30T00:56:18.042Z,18.60
2022-08-30T00:58:49.354Z,18.60
2022-08-30T01:01:17.227Z,18.60
2022-08-30T01:03:45.426Z,18.50
2022-08-30T01:06:15.761Z,18.50
2022-08-30T01:08:43.698Z,18.50
2022-08-30T01:11:12.383Z,18.50
2022-08-30T01:13:40.768Z,18.50
2022-08-30T01:16:08.577Z,18.50
2022-08-30T01:18:37.210Z,18.60
2022-08-30T01:21:40.979Z,18.70
2022-08-30T01:24:09.449Z,18.80
2022-08-30T01:26:37.336Z,18.90
2022-08-30T01:29:10.413Z,19.00
2022-08-30T01:31:37.459Z,18.90
2022-08-30T01:34:07.657Z,18.90
2022-08-30T01:36:37.763Z,18.90
2022-08-30T01:39:16.319Z,18.90
2022-08-30T01:41:43.730Z,18.90
2022-08-30T01:44:12.432Z,18.90
2022-08-30T01:46:43.341Z,18.90
2022-08-30T01:49:13.169Z,18.70
2022-08-30T01:51:40.709Z,18.70
2022-08-30T01:54:08.679Z,18.90
2022-08-30T01:56:35.673Z,19.00
2022-08-30T01:59:03.323Z,19.00
2022-08-30T02:01:32.948Z,19.10
2022-08-30T02:04:00.789Z,18.90
2022-08-30T02:06:28.058Z,18.90
2022-08-30T02:08:55.145Z,18.80
2022-08-30T02:11:22.126Z,18.80
2022-08-30T02:13:49.394Z,18.60
2022-08-30T02:16:18.609Z,18.40
2022-08-30T02:18:45.743Z,18.40
2022-08-30T02:21:13.450Z,18.40
2022-08-30T02:23:41.107Z,18.50
2022-08-30T02:26:08.802Z,18.60
2022-08-30T02:28:35.791Z,18.40
2022-08-30T02:31:16.993Z,18.10
2022-08-30T02:33:46.786Z,18.00
2022-08-30T02:36:14.060Z,17.90
2022-08-30T02:38:40.917Z,17.80
2022-08-30T02:41:07.899Z,17.80
2022-08-30T02:43:34.812Z,17.80
2022-08-30T02:46:01.841Z,17.80
2022-08-30T02:48:28.760Z,17.70
2022-08-30T02:50:55.632Z,17.70
2022-08-30T02:53:23.176Z,17.70
2022-08-30T02:55:50.123Z,17.70
2022-08-30T02:58:17.033Z,17.90
2022-08-30T03:00:44.295Z,17.80
2022-08-30T03:03:11.274Z,17.80
2022-08-30T03:05:39.905Z,17.80
2022-08-30T03:08:08.281Z,18.00
2022-08-30T03:10:35.413Z,17.90
2022-08-30T03:13:03.476Z,18.00
2022-08-30T03:15:30.389Z,17.90
2022-08-30T03:17:58.579Z,17.80
2022-08-30T03:20:25.558Z,17.70
2022-08-30T03:22:52.994Z,17.70
2022-08-30T03:25:21.219Z,17.70
2022-08-30T03:27:49.502Z,17.80
2022-08-30T03:30:18.728Z,17.90
2022-08-30T03:32:46.078Z,18.00
2022-08-30T03:35:14.710Z,17.90
2022-08-30T03:37:41.667Z,18.00
2022-08-30T03:40:10.107Z,18.00
2022-08-30T03:42:37.791Z,18.00
2022-08-30T03:45:07.607Z,18.00
2022-08-30T03:47:34.692Z,18.00
2022-08-30T03:50:02.226Z,18.00
2022-08-30T03:52:29.128Z,18.00
2022-08-30T03:54:56.064Z,18.00
2022-08-30T03:57:24.559Z,18.00
2022-08-30T03:59:51.838Z,18.10
2022-08-30T04:02:19.345Z,18.10
2022-08-30T04:04:46.796Z,18.10
2022-08-30T04:07:13.686Z,18.10
2022-08-30T04:09:41.897Z,18.10
2022-08-30T04:12:09.354Z,18.00
2022-08-30T04:14:36.237Z,18.00
2022-08-30T04:17:03.347Z,18.00
2022-08-30T04:19:30.285Z,18.00
2022-08-30T04:21:57.402Z,18.10
2022-08-30T04:24:24.639Z,18.10
2022-08-30T04:26:51.602Z,18.10
2022-08-30T04:29:18.615Z,18.00
2022-08-30T04:31:45.803Z,18.10
2022-08-30T04:34:14.090Z,18.00
2022-08-30T04:36:41.169Z,18.00
2022-08-30T04:39:08.088Z,18.00
2022-08-30T04:41:37.195Z,18.00
2022-08-30T04:44:04.162Z,18.10
2022-08-30T04:46:31.117Z,18.10
2022-08-30T04:48:58.054Z,18.00
2022-08-30T04:51:25.018Z,18.00
2022-08-30T04:53:51.983Z,18.00
2022-08-30T04:56:24.893Z,18.00
2022-08-30T04:58:53.937Z,18.00
2022-08-30T05:01:25.378Z,18.00
2022-08-30T05:03:54.938Z,18.00
2022-08-30T05:06:23.571Z,18.00
2022-08-30T05:08:51.938Z,18.00
2022-08-30T05:11:19.117Z,18.10
2022-08-30T05:13:46.816Z,18.10
2022-08-30T05:16:19.503Z,18.20
2022-08-30T05:18:48.306Z,18.10
2022-08-30T05:21:18.725Z,17.90
2022-08-30T05:23:46.176Z,17.80
2022-08-30T05:26:18.245Z,17.90
2022-08-30T05:28:46.154Z,18.00
2022-08-30T05:31:19.797Z,18.00
2022-08-30T05:33:47.773Z,18.00
2022-08-30T05:36:16.244Z,18.00
2022-08-30T05:38:43.519Z,18.00
2022-08-30T05:41:11.310Z,17.90
2022-08-30T05:43:39.093Z,17.90
2022-08-30T05:46:12.120Z,17.90
2022-08-30T05:48:40.338Z,17.90
2022-08-30T05:51:13.860Z,17.90
2022-08-30T05:53:41.272Z,17.90
2022-08-30T05:56:11.753Z,18.10
2022-08-30T05:58:39.700Z,18.00
2022-08-30T06:01:07.259Z,18.10
2022-08-30T06:03:34.625Z,18.00
2022-08-30T06:06:01.758Z,18.10
2022-08-30T06:08:28.659Z,18.10
2022-08-30T06:10:55.545Z,18.00
2022-08-30T06:13:22.526Z,18.10
2022-08-30T06:15:49.713Z,18.20
2022-08-30T06:18:17.130Z,18.30
2022-08-30T06:20:50.181Z,18.40
2022-08-30T06:23:18.160Z,18.20
2022-08-30T06:25:45.087Z,18.30
2022-08-30T06:28:12.739Z,18.30
2022-08-30T06:30:42.103Z,18.30
2022-08-30T06:33:10.029Z,18.30
2022-08-30T06:35:46.750Z,18.30
2022-08-30T06:38:23.928Z,18.20
2022-08-30T06:40:51.036Z,18.30
2022-08-30T06:43:17.910Z,18.20
2022-08-30T06:45:44.807Z,18.10
2022-08-30T06:48:11.743Z,18.10
2022-08-30T06:50:38.649Z,18.30
2022-08-30T06:53:06.123Z,18.40
2022-08-30T06:55:36.281Z,18.50
2022-08-30T06:58:04.363Z,18.60
2022-08-30T07:00:31.253Z,18.60
2022-08-30T07:02:58.672Z,18.50
2022-08-30T07:05:25.774Z,18.60
2022-08-30T07:07:55.516Z,18.70
2022-08-30T07:10:22.456Z,18.60
2022-08-30T07:12:49.802Z,18.50
2022-08-30T07:15:20.643Z,18.50
2022-08-30T07:18:05.843Z,18.40
2022-08-30T07:20:40.260Z,18.40
2022-08-30T07:23:08.219Z,18.40
2022-08-30T07:25:37.277Z,18.50
2022-08-30T07:28:06.398Z,18.60
2022-08-30T07:30:34.078Z,18.70
2022-08-30T07:33:00.957Z,18.80
2022-08-30T07:35:28.425Z,18.70
2022-08-30T07:37:55.345Z,18.70
2022-08-30T07:40:22.498Z,18.70
2022-08-30T07:42:49.450Z,18.70
2022-08-30T07:45:16.491Z,18.70
2022-08-30T07:47:43.350Z,18.90
2022-08-30T07:50:10.196Z,19.10
2022-08-30T07:55:10.165Z,19.50
2022-08-30T07:57:37.239Z,19.60
2022-08-30T08:00:05.981Z,19.50
2022-08-30T08:02:33.729Z,19.50
2022-08-30T08:05:00.913Z,19.50
2022-08-30T08:07:27.824Z,19.40
2022-08-30T08:09:54.730Z,19.50
2022-08-30T08:12:21.642Z,19.40
2022-08-30T08:14:48.467Z,19.30
2022-08-30T08:17:15.314Z,19.20
2022-08-30T08:19:42.322Z,19.10
2022-08-30T08:22:20.672Z,19.10
2022-08-30T08:24:49.464Z,19.10
2022-08-30T08:27:16.494Z,19.10
2022-08-30T08:29:43.429Z,19.10
2022-08-30T08:32:10.329Z,19.10
2022-08-30T08:34:37.367Z,19.10
2022-08-30T08:37:05.170Z,19.10
2022-08-30T08:39:32.090Z,19.10
2022-08-30T08:42:20.405Z,19.10
2022-08-30T08:45:11.633Z,19.00
2022-08-30T08:48:02.624Z,19.00
2022-08-30T08:50:31.526Z,18.90
2022-08-30T08:53:46.493Z,18.80
2022-08-30T08:56:16.880Z,18.90
2022-08-30T08:58:48.285Z,19.00
2022-08-30T09:01:16.453Z,18.90
2022-08-30T09:03:44.167Z,18.90
2022-08-30T09:06:20.529Z,18.80
2022-08-30T09:08:47.422Z,18.50
2022-08-30T09:11:26.277Z,18.50
2022-08-30T09:13:54.657Z,18.60
2022-08-30T09:16:49.212Z,18.60
2022-08-30T09:19:35.270Z,18.60
2022-08-30T09:22:05.984Z,18.50
2022-08-30T09:25:02.064Z,18.40
2022-08-30T09:27:32.069Z,18.40
2022-08-30T09:30:15.965Z,18.30
2022-08-30T09:32:52.510Z,18.20
2022-08-30T09:35:24.124Z,18.10
2022-08-30T09:37:57.785Z,18.00
2022-08-30T09:40:43.306Z,18.10
2022-08-30T09:43:17.486Z,18.00
2022-08-30T09:46:07.252Z,18.00
2022-08-30T09:48:45.547Z,18.00
2022-08-30T09:51:15.035Z,17.90
2022-08-30T09:54:07.148Z,18.00
2022-08-30T09:56:56.488Z,18.00
2022-08-30T09:59:57.733Z,18.00
2022-08-30T10:02:57.617Z,18.00
2022-08-30T10:08:41.516Z,17.90
2022-08-30T10:11:25.048Z,17.90
2022-08-30T10:14:08.573Z,17.90
2022-08-30T10:16:42.909Z,17.90
2022-08-30T10:19:09.799Z,17.90
2022-08-30T10:21:48.379Z,17.90
2022-08-30T10:24:31.231Z,18.00
2022-08-30T10:27:09.144Z,18.00
2022-08-30T10:29:53.513Z,18.10
2022-08-30T10:32:43.118Z,18.10
2022-08-30T10:35:25.972Z,18.20
2022-08-30T10:37:56.013Z,18.40
2022-08-30T10:40:53.816Z,18.50
2022-08-30T10:44:08.740Z,18.40
2022-08-30T10:46:50.687Z,18.30
2022-08-30T10:49:23.642Z,18.40
2022-08-30T10:52:17.440Z,18.60
2022-08-30T10:54:48.629Z,18.60
2022-08-30T10:57:18.030Z,18.60
2022-08-30T11:00:08.093Z,18.60
2022-08-30T11:02:43.585Z,18.60
2022-08-30T11:05:41.963Z,18.80
2022-08-30T11:08:41.288Z,18.70
2022-08-30T11:11:29.892Z,18.80
2022-08-30T11:14:05.451Z,18.80
2022-08-30T11:16:39.834Z,18.80
2022-08-30T11:19:21.988Z,18.70
2022-08-30T11:21:51.062Z,18.70
2022-08-30T11:24:23.889Z,18.80
2022-08-30T11:26:57.584Z,18.80
2022-08-30T11:32:23.841Z,19.10
2022-08-30T11:34:56.777Z,19.00
2022-08-30T11:37:40.967Z,19.00
2022-08-30T11:40:14.252Z,19.10
2022-08-30T11:42:46.790Z,18.80
2022-08-30T11:45:25.173Z,18.70
2022-08-30T11:47:59.860Z,18.50
2022-08-30T11:50:32.819Z,18.50
2022-08-30T11:53:07.163Z,18.60
2022-08-30T11:55:45.191Z,18.60
2022-08-30T11:58:15.497Z,18.50
2022-08-30T12:00:52.572Z,18.60
2022-08-30T12:03:20.552Z,18.80
2022-08-30T12:06:10.235Z,18.80
2022-08-30T12:08:45.133Z,18.90
2022-08-30T12:11:14.183Z,19.00
2022-08-30T12:13:44.007Z,19.10
2022-08-30T12:16:19.931Z,19.10
2022-08-30T12:18:50.740Z,19.20
2022-08-30T12:21:21.331Z,19.10
2022-08-30T12:23:48.777Z,19.00
2022-08-30T12:26:25.099Z,19.00
2022-08-30T12:29:15.019Z,19.20
2022-08-30T12:31:49.923Z,19.40
2022-08-30T12:34:35.334Z,19.80
2022-08-30T12:37:08.744Z,20.10
2022-08-30T12:39:40.023Z,20.20
2022-08-30T12:42:28.195Z,20.20
2022-08-30T12:44:58.794Z,19.90
2022-08-30T12:47:46.765Z,19.70
2022-08-30T12:50:17.902Z,19.80
2022-08-30T12:52:48.585Z,19.70
2022-08-30T12:55:25.393Z,19.50
2022-08-30T12:58:01.156Z,19.40
2022-08-30T13:00:28.151Z,19.60
2022-08-30T13:02:58.060Z,19.60
2022-08-30T13:05:44.529Z,19.60
2022-08-30T13:08:21.463Z,19.40
2022-08-30T13:10:54.230Z,19.10
2022-08-30T13:13:52.066Z,19.00
2022-08-30T13:16:22.376Z,18.90
2022-08-30T13:19:13.822Z,18.80
2022-08-30T13:21:50.041Z,18.80
2022-08-30T13:24:16.900Z,18.90
2022-08-30T13:26:45.198Z,18.80
2022-08-30T13:29:19.028Z,18.80
2022-08-30T13:31:46.537Z,18.80
2022-08-30T13:34:19.081Z,18.70
2022-08-30T13:36:53.477Z,18.60
2022-08-30T13:39:21.863Z,18.60
2022-08-30T13:41:49.444Z,18.40
2022-08-30T13:44:16.619Z,18.40
2022-08-30T13:46:53.024Z,18.30
2022-08-30T13:49:45.927Z,18.20
2022-08-30T13:52:21.699Z,18.20
2022-08-30T13:54:54.435Z,18.30
2022-08-30T14:00:17.653Z,18.00
2022-08-30T14:02:50.120Z,18.10
2022-08-30T14:05:47.512Z,18.20
2022-08-30T14:11:01.518Z,18.00
2022-08-30T14:13:29.395Z,17.90
2022-08-30T14:18:45.303Z,18.00
2022-08-30T14:21:12.233Z,18.10
2022-08-30T14:23:39.143Z,18.00
2022-08-30T14:26:12.136Z,17.70
2022-08-30T14:28:39.275Z,17.50
2022-08-30T14:31:06.498Z,17.40
2022-08-30T14:33:33.643Z,17.20
2022-08-30T14:36:00.530Z,17.20
2022-08-30T14:38:27.476Z,17.30
2022-08-30T14:40:54.519Z,17.40
2022-08-30T14:43:21.468Z,17.40
2022-08-30T14:45:50.864Z,17.60
2022-08-30T14:48:18.018Z,17.50
2022-08-30T14:50:46.797Z,17.50
2022-08-30T14:53:13.688Z,17.40
2022-08-30T14:55:41.865Z,17.40
2022-08-30T14:58:10.780Z,17.60
2022-08-30T15:00:38.711Z,17.60
2022-08-30T15:03:05.919Z,17.60
2022-08-30T15:05:32.741Z,17.50
2022-08-30T15:07:59.801Z,17.30
2022-08-30T15:10:27.267Z,17.30
2022-08-30T15:12:54.184Z,17.20
2022-08-30T15:15:22.340Z,17.20
2022-08-30T15:17:49.555Z,17.20
2022-08-30T15:20:20.809Z,17.00
2022-08-30T15:22:47.803Z,16.80
2022-08-30T15:25:14.823Z,16.70
2022-08-30T15:27:41.777Z,16.80
2022-08-30T15:30:11.081Z,16.70
2022-08-30T15:32:38.081Z,16.80
2022-08-30T15:35:05.885Z,16.90
2022-08-30T15:37:35.105Z,16.80
2022-08-30T15:40:04.756Z,16.90
2022-08-30T15:42:33.750Z,16.90
2022-08-30T15:45:00.718Z,16.80
2022-08-30T15:47:27.738Z,16.70
2022-08-30T15:49:56.839Z,16.70
2022-08-30T15:52:24.492Z,16.60
2022-08-30T15:54:51.667Z,16.70
2022-08-30T15:57:19.063Z,16.70
2022-08-30T15:59:46.014Z,16.70
2022-08-30T16:02:13.016Z,16.60
2022-08-30T16:04:40.563Z,16.60
2022-08-30T16:07:08.868Z,16.60
2022-08-30T16:09:37.087Z,16.70
2022-08-30T16:12:06.751Z,16.60
2022-08-30T16:14:34.713Z,16.50
2022-08-30T16:17:02.113Z,16.60
2022-08-30T16:19:29.134Z,16.60
2022-08-30T16:21:56.648Z,16.60
2022-08-30T16:24:24.890Z,16.80
2022-08-30T16:26:52.127Z,16.60
2022-08-30T16:29:19.034Z,16.60
2022-08-30T16:31:47.566Z,16.40
2022-08-30T16:34:16.840Z,16.40
2022-08-30T16:36:43.820Z,16.30
2022-08-30T16:39:13.507Z,16.20
2022-08-30T16:41:41.857Z,16.30
2022-08-30T16:44:09.430Z,16.30
2022-08-30T16:46:40.295Z,16.30
2022-08-30T16:49:08.976Z,16.10
2022-08-30T16:51:36.882Z,16.10
2022-08-30T16:54:07.849Z,16.10
2022-08-30T16:56:36.309Z,16.00
2022-08-30T16:59:09.030Z,16.00
2022-08-30T17:01:38.847Z,16.10
2022-08-30T17:04:08.287Z,15.90
2022-08-30T17:06:36.051Z,15.90
2022-08-30T17:09:04.307Z,16.00
2022-08-30T17:11:32.366Z,16.00
2022-08-30T17:13:59.544Z,15.80
2022-08-30T17:16:29.961Z,15.80
2022-08-30T17:19:00.368Z,15.70
2022-08-30T17:21:29.664Z,15.60
2022-08-30T17:24:02.495Z,15.70
2022-08-30T17:26:32.365Z,15.80
2022-08-30T17:28:59.349Z,15.80
2022-08-30T17:31:30.401Z,15.80
2022-08-30T17:34:03.337Z,15.70
2022-08-30T17:36:36.374Z,15.80
2022-08-30T17:39:11.015Z,15.80
2022-08-30T17:41:40.103Z,15.90
2022-08-30T17:44:10.738Z,15.80
2022-08-30T17:46:38.434Z,15.80
2022-08-30T17:49:05.928Z,15.80
2022-08-30T17:51:33.153Z,15.80
2022-08-30T17:54:00.470Z,15.70
2022-08-30T17:56:34.019Z,15.70
2022-08-30T17:59:01.343Z,15.70
2022-08-30T18:01:28.656Z,15.60
2022-08-30T18:04:02.000Z,15.60
2022-08-30T18:06:33.342Z,15.60
2022-08-30T18:09:06.561Z,15.70
2022-08-30T18:11:36.146Z,15.70
2022-08-30T18:14:04.288Z,15.70
2022-08-30T18:16:36.095Z,15.70
2022-08-30T18:19:04.697Z,15.70
2022-08-30T18:21:37.790Z,15.70
2022-08-30T18:24:06.020Z,15.60
2022-08-30T18:26:33.517Z,15.60
2022-08-30T18:29:00.689Z,15.70
2022-08-30T18:31:27.584Z,15.70
2022-08-30T18:33:55.442Z,15.70
2022-08-30T18:36:22.378Z,15.70
2022-08-30T18:38:49.235Z,15.70
2022-08-30T18:41:17.295Z,15.70
2022-08-30T18:43:44.973Z,15.70
2022-08-30T18:46:14.178Z,15.80
2022-08-30T18:48:41.727Z,15.80
2022-08-30T18:51:20.681Z,15.80
2022-08-30T18:53:49.232Z,15.80
2022-08-30T18:56:17.157Z,15.80
2022-08-30T18:58:45.946Z,15.70
2022-08-30T19:01:13.455Z,15.70
2022-08-30T19:03:41.885Z,15.70
2022-08-30T19:06:11.612Z,15.60
2022-08-30T19:08:40.298Z,15.60
2022-08-30T19:11:08.970Z,15.50
2022-08-30T19:13:37.018Z,15.50
2022-08-30T19:16:05.676Z,15.40
2022-08-30T19:18:33.280Z,15.40
2022-08-30T19:21:00.316Z,15.40
2022-08-30T19:23:33.968Z,15.40
2022-08-30T19:26:01.388Z,15.40
2022-08-30T19:28:28.605Z,15.40
2022-08-30T19:30:55.518Z,15.40
2022-08-30T19:33:29.177Z,15.40
2022-08-30T19:35:56.956Z,15.30
2022-08-30T19:38:24.077Z,15.40
2022-08-30T19:40:58.587Z,15.30
2022-08-30T19:43:27.035Z,15.40
2022-08-30T19:45:58.870Z,15.30
2022-08-30T19:48:32.932Z,15.20
2022-08-30T19:51:08.590Z,15.30
2022-08-30T19:53:36.586Z,15.30
2022-08-30T19:56:03.873Z,15.30
2022-08-30T19:58:30.765Z,15.20
2022-08-30T20:01:10.893Z,15.30
2022-08-30T20:03:40.335Z,15.30
2022-08-30T20:06:08.957Z,15.20
2022-08-30T20:08:36.715Z,15.30
2022-08-30T20:11:04.943Z,15.30
2022-08-30T20:13:33.784Z,15.20
2022-08-30T20:16:01.396Z,15.20
2022-08-30T20:18:29.051Z,15.20
2022-08-30T20:20:56.416Z,15.20
2022-08-30T20:23:25.385Z,15.20
2022-08-30T20:25:54.577Z,15.20
2022-08-30T20:28:22.204Z,15.30
2022-08-30T20:30:49.744Z,15.20
2022-08-30T20:33:17.661Z,15.30
2022-08-30T20:35:49.012Z,15.30
2022-08-30T20:38:23.849Z,15.20
2022-08-30T20:40:54.624Z,15.20
2022-08-30T20:43:24.161Z,15.20
2022-08-30T20:45:51.737Z,15.10
2022-08-30T20:48:19.590Z,15.20
2022-08-30T20:50:46.715Z,15.10
2022-08-30T20:53:14.173Z,15.20
2022-08-30T20:55:46.504Z,15.20
2022-08-30T20:58:14.493Z,15.20
2022-08-30T21:00:45.788Z,15.20
2022-08-30T21:03:26.205Z,15.20
2022-08-30T21:05:56.199Z,15.20
2022-08-30T21:08:23.115Z,15.20
2022-08-30T21:10:50.072Z,15.20
2022-08-30T21:13:17.343Z,15.10
2022-08-30T21:15:47.461Z,15.10
2022-08-30T21:18:14.630Z,15.00
2022-08-30T21:20:41.895Z,15.00
2022-08-30T21:23:08.923Z,15.00
2022-08-30T21:25:39.583Z,15.00
2022-08-30T21:28:07.054Z,15.00
2022-08-30T21:30:35.084Z,15.00
2022-08-30T21:33:04.132Z,15.00
2022-08-30T21:35:51.673Z,15.00
2022-08-30T21:38:20.012Z,15.00
2022-08-30T21:40:48.522Z,14.90
2022-08-30T21:43:18.719Z,14.90
2022-08-30T21:45:45.809Z,14.90
2022-08-30T21:48:15.313Z,14.80
2022-08-30T21:50:43.163Z,14.80
2022-08-30T21:53:10.645Z,14.70
2022-08-30T21:55:37.842Z,14.80
2022-08-30T21:58:04.855Z,14.70
2022-08-30T22:00:33.657Z,14.60
2022-08-30T22:03:00.720Z,14.70
2022-08-30T22:05:27.765Z,14.70
2022-08-30T22:07:54.666Z,14.70
2022-08-30T22:10:21.607Z,14.60
2022-08-30T22:12:48.497Z,14.60
2022-08-30T22:15:15.614Z,14.70
2022-08-30T22:17:43.579Z,14.70
2022-08-30T22:20:12.021Z,14.60
2022-08-30T22:22:45.546Z,14.70
2022-08-30T22:25:12.637Z,14.70
2022-08-30T22:27:39.567Z,14.70
2022-08-30T22:30:06.983Z,14.70
2022-08-30T22:32:33.921Z,14.60
2022-08-30T22:35:00.815Z,14.60
2022-08-30T22:37:27.700Z,14.60
2022-08-30T22:39:54.762Z,14.60
2022-08-30T22:42:21.726Z,14.60
2022-08-30T22:44:48.600Z,14.60
2022-08-30T22:47:15.482Z,14.60
2022-08-30T22:49:42.369Z,14.70
2022-08-30T22:52:09.281Z,14.70
2022-08-30T22:54:37.152Z,14.70
2022-08-30T22:57:04.627Z,14.60
2022-08-30T22:59:32.462Z,14.60
2022-08-30T23:01:59.937Z,14.60
2022-08-30T23:04:26.983Z,14.60
2022-08-30T23:06:53.908Z,14.70
2022-08-30T23:09:20.856Z,14.80
2022-08-30T23:11:47.844Z,14.80
2022-08-30T23:14:14.845Z,14.80
2022-08-30T23:16:41.747Z,14.70
2022-08-30T23:19:09.188Z,14.70
2022-08-30T23:21:36.110Z,14.70
2022-08-30T23:24:21.515Z,14.70
2022-08-30T23:27:06.886Z,14.60
2022-08-30T23:29:53.912Z,14.70
2022-08-30T23:32:39.847Z,14.60
2022-08-30T23:35:29.440Z,14.70
2022-08-30T23:38:18.494Z,14.70
2022-08-30T23:41:03.855Z,14.70
2022-08-30T23:43:49.102Z,14.70
2022-08-30T23:46:34.790Z,14.70
2022-08-30T23:49:20.547Z,14.70
2022-08-30T23:52:05.918Z,14.60
2022-08-30T23:54:51.988Z,14.70
2022-08-30T23:57:43.790Z,14.60
